Time;durP1;ratioP1;P1;durP2;ratioP2;P2;SDS_P1;SDS_P2;PMS_P1;PMS_P2;Temp;Humidity;BMP_temperature;BMP_pressure;BME280_temperature;BME280_humidity;BME280_pressure;Samples;Min_cycle;Max_cycle;Signal;HPM_P1;HPM_P2
2022/06/05 00:01:10;;;;;;;15.60;8.82;;;;;;;;;;5075815;28;20475;-75
2022/06/05 00:03:39;;;;;;;18.70;8.52;;;;;;;;;;5082693;28;20025;-74
2022/06/05 00:06:14;;;;;;;14.15;8.77;;;;;;;;;;5064971;28;20364;-74
2022/06/05 00:08:47;;;;;;;12.63;8.38;;;;;;;;;;5078143;28;20475;-74
2022/06/05 00:11:13;;;;;;;13.27;8.43;;;;;;;;;;5073562;28;20131;-74
2022/06/05 00:13:44;;;;;;;12.73;8.82;;;;;;;;;;5081767;28;20097;-74
2022/06/05 00:16:11;;;;;;;17.40;8.88;;;;;;;;;;5058027;28;20050;-74
2022/06/05 00:18:39;;;;;;;15.60;8.52;;;;;;;;;;5085731;28;20089;-74
2022/06/05 00:21:08;;;;;;;17.15;8.93;;;;;;;;;;5073923;28;20100;-74
2022/06/05 00:23:34;;;;;;;14.20;8.45;;;;;;;;;;5074388;28;20081;-74
2022/06/05 00:26:09;;;;;;;14.57;9.18;;;;;;;;;;5052458;28;20391;-74
2022/06/05 00:28:43;;;;;;;17.00;9.48;;;;;;;;;;5069016;28;20045;-74
2022/06/05 00:31:12;;;;;;;12.02;9.18;;;;;;;;;;5069038;28;20101;-74
2022/06/05 00:33:40;;;;;;;12.48;8.98;;;;;;;;;;5071319;28;20386;-74
2022/06/05 00:36:25;;;;;;;13.35;8.68;;;;;;;;;;5065135;28;20025;-74
2022/06/05 00:38:51;;;;;;;14.98;8.77;;;;;;;;;;5078160;28;20573;-74
2022/06/05 00:41:23;;;;;;;17.40;8.90;;;;;;;;;;5071840;28;20033;-74
2022/06/05 00:43:49;;;;;;;16.17;8.45;;;;;;;;;;5069956;28;20033;-74
2022/06/05 00:46:16;;;;;;;15.10;8.90;;;;;;;;;;5034598;28;20040;-74
2022/06/05 00:48:42;;;;;;;17.02;9.48;;;;;;;;;;5065607;28;20041;-74
2022/06/05 00:51:08;;;;;;;16.70;9.70;;;;;;;;;;5067502;28;20107;-75
2022/06/05 00:53:34;;;;;;;13.60;10.38;;;;;;;;;;5077318;28;20029;-74
2022/06/05 00:56:00;;;;;;;16.52;9.70;;;;;;;;;;5087962;28;20040;-74
2022/06/05 00:58:26;;;;;;;14.60;9.68;;;;;;;;;;5086385;28;20123;-74
2022/06/05 01:00:54;;;;;;;13.85;9.52;;;;;;;;;;5067874;28;20056;-74
2022/06/05 01:03:20;;;;;;;15.52;9.32;;;;;;;;;;5068292;28;20025;-74
2022/06/05 01:05:46;;;;;;;16.98;10.82;;;;;;;;;;5069786;28;20063;-75
2022/06/05 01:08:14;;;;;;;14.20;9.80;;;;;;;;;;5062414;28;20060;-75
2022/06/05 01:10:40;;;;;;;19.48;11.43;;;;;;;;;;5071586;28;20063;-74
2022/06/05 01:13:13;;;;;;;32.50;14.75;;;;;;;;;;5073262;28;20381;-74
2022/06/05 01:15:48;;;;;;;19.02;10.63;;;;;;;;;;5057367;28;20028;-75
2022/06/05 01:18:15;;;;;;;14.13;9.50;;;;;;;;;;5065728;28;20024;-74
2022/06/05 01:20:43;;;;;;;18.55;9.73;;;;;;;;;;5069063;28;23486;-74
2022/06/05 01:23:13;;;;;;;14.77;10.00;;;;;;;;;;5073133;28;20024;-74
2022/06/05 01:26:00;;;;;;;15.40;8.77;;;;;;;;;;5063922;28;20028;-74
2022/06/05 01:28:28;;;;;;;15.13;9.20;;;;;;;;;;5058894;28;20040;-74
2022/06/05 01:31:09;;;;;;;13.73;10.23;;;;;;;;;;5071107;28;20024;-74
2022/06/05 01:33:38;;;;;;;18.98;10.50;;;;;;;;;;5045599;28;20032;-74
2022/06/05 01:36:14;;;;;;;16.70;9.93;;;;;;;;;;5051538;28;20082;-74
2022/06/05 01:38:43;;;;;;;14.93;9.13;;;;;;;;;;5061821;28;20068;-74
2022/06/05 01:41:11;;;;;;;18.23;9.85;;;;;;;;;;5066222;28;20029;-73
2022/06/05 01:43:40;;;;;;;16.73;8.80;;;;;;;;;;5065985;28;20032;-74
2022/06/05 01:46:09;;;;;;;13.10;9.32;;;;;;;;;;5071222;28;20112;-73
2022/06/05 01:48:44;;;;;;;13.75;9.30;;;;;;;;;;5072422;28;21829;-73
2022/06/05 01:51:28;;;;;;;17.73;8.70;;;;;;;;;;5067217;28;20037;-73
2022/06/05 01:53:55;;;;;;;13.27;8.35;;;;;;;;;;5087390;28;20047;-73
2022/06/05 01:56:25;;;;;;;11.85;9.40;;;;;;;;;;5089828;28;20108;-73
2022/06/05 01:58:57;;;;;;;12.82;8.13;;;;;;;;;;5047800;28;20025;-73
2022/06/05 02:01:29;;;;;;;16.92;9.48;;;;;;;;;;5071492;28;20388;-73
2022/06/05 02:04:09;;;;;;;17.92;9.52;;;;;;;;;;5084518;28;20036;-73
2022/06/05 02:06:43;;;;;;;11.45;8.30;;;;;;;;;;5058810;28;20029;-73
2022/06/05 02:09:13;;;;;;;13.18;8.68;;;;;;;;;;5071354;28;20040;-73
2022/06/05 02:11:39;;;;;;;13.32;8.48;;;;;;;;;;5079686;28;20055;-73
2022/06/05 02:14:06;;;;;;;15.82;8.35;;;;;;;;;;5059251;28;20032;-74
2022/06/05 02:16:33;;;;;;;20.17;8.93;;;;;;;;;;5067797;28;20033;-74
2022/06/05 02:19:02;;;;;;;14.98;8.63;;;;;;;;;;5071395;28;20035;-74
2022/06/05 02:21:28;;;;;;;17.92;8.65;;;;;;;;;;5085863;28;20119;-74
2022/06/05 02:23:54;;;;;;;18.00;9.02;;;;;;;;;;5077654;28;20024;-73
2022/06/05 02:26:20;;;;;;;12.25;8.57;;;;;;;;;;5069421;28;20031;-74
2022/06/05 02:28:46;;;;;;;17.25;10.13;;;;;;;;;;5057252;28;20048;-74
2022/06/05 02:31:21;;;;;;;14.02;8.82;;;;;;;;;;5076055;28;20040;-73
2022/06/05 02:33:54;;;;;;;12.60;8.75;;;;;;;;;;5050042;28;20037;-73
2022/06/05 02:36:23;;;;;;;14.20;9.25;;;;;;;;;;5064252;28;20025;-73
2022/06/05 02:38:50;;;;;;;18.90;9.00;;;;;;;;;;5066285;28;20051;-73
2022/06/05 02:41:20;;;;;;;15.43;10.10;;;;;;;;;;5064173;28;20025;-73
2022/06/05 02:46:42;;;;;;;19.80;9.95;;;;;;;;;;5060607;28;20140;-73
2022/06/05 02:49:10;;;;;;;13.73;9.18;;;;;;;;;;5085063;28;20044;-73
2022/06/05 02:51:40;;;;;;;17.30;8.95;;;;;;;;;;5065976;28;20125;-73
2022/06/05 02:54:06;;;;;;;18.67;10.00;;;;;;;;;;5055878;28;20023;-73
2022/06/05 02:56:32;;;;;;;16.60;8.85;;;;;;;;;;5051230;28;20364;-73
2022/06/05 02:59:00;;;;;;;20.73;9.73;;;;;;;;;;5085292;28;20141;-73
2022/06/05 03:04:11;;;;;;;13.95;8.60;;;;;;;;;;5077425;28;20407;-73
2022/06/05 03:06:38;;;;;;;13.20;9.07;;;;;;;;;;5047318;28;20057;-73
2022/06/05 03:09:04;;;;;;;15.60;9.18;;;;;;;;;;5066796;28;20044;-73
2022/06/05 03:11:31;;;;;;;15.60;8.88;;;;;;;;;;5080093;28;20502;-73
2022/06/05 03:13:58;;;;;;;17.02;9.90;;;;;;;;;;5076143;28;20028;-73
2022/06/05 03:16:25;;;;;;;16.70;9.93;;;;;;;;;;5060354;28;20624;-73
2022/06/05 03:18:51;;;;;;;19.05;9.90;;;;;;;;;;5055833;28;20025;-73
2022/06/05 03:21:17;;;;;;;17.42;9.27;;;;;;;;;;5078818;28;20455;-73
2022/06/05 03:23:43;;;;;;;18.13;10.25;;;;;;;;;;5069699;28;20032;-73
2022/06/05 03:26:10;;;;;;;14.45;9.93;;;;;;;;;;5072455;28;20107;-73
2022/06/05 03:28:36;;;;;;;20.52;11.25;;;;;;;;;;5067438;28;20040;-73
2022/06/05 03:31:06;;;;;;;15.77;10.38;;;;;;;;;;5068486;28;20042;-73
2022/06/05 03:33:32;;;;;;;18.58;10.32;;;;;;;;;;5079586;28;20029;-73
2022/06/05 03:35:58;;;;;;;16.88;9.50;;;;;;;;;;5067112;28;20098;-73
2022/06/05 03:38:25;;;;;;;15.48;10.30;;;;;;;;;;5068628;28;20353;-73
2022/06/05 03:40:51;;;;;;;22.88;12.00;;;;;;;;;;5064164;28;20081;-73
2022/06/05 03:43:18;;;;;;;16.55;9.80;;;;;;;;;;5090184;28;20115;-73
2022/06/05 03:45:44;;;;;;;19.73;11.88;;;;;;;;;;5077719;28;20029;-73
2022/06/05 03:48:10;;;;;;;21.23;10.32;;;;;;;;;;5056209;28;20039;-73
2022/06/05 03:50:39;;;;;;;14.40;10.68;;;;;;;;;;5069590;28;20488;-73
2022/06/05 03:53:06;;;;;;;20.17;10.95;;;;;;;;;;5080939;28;20032;-73
2022/06/05 03:55:32;;;;;;;16.58;11.13;;;;;;;;;;5065417;28;20059;-73
2022/06/05 03:57:58;;;;;;;20.17;11.75;;;;;;;;;;5064776;28;20037;-73
2022/06/05 04:00:24;;;;;;;14.88;10.35;;;;;;;;;;5070793;28;20527;-73
2022/06/05 04:02:50;;;;;;;24.55;10.68;;;;;;;;;;5073226;28;20039;-73
2022/06/05 04:05:18;;;;;;;18.10;11.77;;;;;;;;;;5066940;28;20037;-73
2022/06/05 04:07:44;;;;;;;18.38;11.63;;;;;;;;;;5053548;28;20078;-73
2022/06/05 04:10:11;;;;;;;21.95;11.45;;;;;;;;;;5068792;28;20056;-73
2022/06/05 04:12:39;;;;;;;18.45;10.90;;;;;;;;;;5073651;28;20114;-72
2022/06/05 04:15:05;;;;;;;18.48;11.32;;;;;;;;;;5070800;28;20047;-73
2022/06/05 04:17:31;;;;;;;17.90;10.20;;;;;;;;;;5078368;28;20032;-73
2022/06/05 04:19:57;;;;;;;22.63;11.38;;;;;;;;;;5085846;28;20040;-73
2022/06/05 04:22:23;;;;;;;18.63;10.90;;;;;;;;;;5071118;28;20054;-73
2022/06/05 04:24:49;;;;;;;17.30;10.10;;;;;;;;;;5064663;28;20028;-73
2022/06/05 04:27:15;;;;;;;17.42;10.95;;;;;;;;;;5079098;28;20412;-73
2022/06/05 04:29:41;;;;;;;17.95;10.07;;;;;;;;;;5072825;28;20051;-73
2022/06/05 04:32:07;;;;;;;20.08;12.23;;;;;;;;;;5078486;28;20365;-73
2022/06/05 04:34:33;;;;;;;17.60;10.95;;;;;;;;;;5079002;28;20049;-73
2022/06/05 04:36:59;;;;;;;18.75;11.40;;;;;;;;;;5072040;28;20021;-73
2022/06/05 04:39:25;;;;;;;17.27;11.07;;;;;;;;;;5072948;28;20392;-73
2022/06/05 04:41:51;;;;;;;18.35;11.80;;;;;;;;;;5072708;28;20040;-73
2022/06/05 04:44:18;;;;;;;19.83;11.57;;;;;;;;;;5066550;28;20032;-73
2022/06/05 04:46:44;;;;;;;16.50;11.65;;;;;;;;;;5069755;28;20502;-74
2022/06/05 04:49:11;;;;;;;16.65;11.27;;;;;;;;;;5064219;28;20056;-73
2022/06/05 04:51:37;;;;;;;18.42;13.00;;;;;;;;;;5068575;28;20033;-73
2022/06/05 04:54:05;;;;;;;20.83;11.75;;;;;;;;;;5082382;28;20051;-73
2022/06/05 04:56:32;;;;;;;19.13;11.43;;;;;;;;;;5073850;28;20024;-73
2022/06/05 04:58:58;;;;;;;22.73;11.30;;;;;;;;;;5076242;28;20114;-73
2022/06/05 05:01:32;;;;;;;17.75;11.55;;;;;;;;;;5072030;28;20413;-73
2022/06/05 05:04:01;;;;;;;14.73;10.90;;;;;;;;;;5071133;28;20453;-73
2022/06/05 05:06:29;;;;;;;16.67;10.38;;;;;;;;;;5067186;28;20925;-73
2022/06/05 05:08:55;;;;;;;19.13;11.23;;;;;;;;;;5080757;28;20063;-73
2022/06/05 05:11:22;;;;;;;15.50;10.25;;;;;;;;;;5075008;28;20052;-73
2022/06/05 05:13:48;;;;;;;20.77;11.70;;;;;;;;;;5066175;28;20879;-73
2022/06/05 05:16:15;;;;;;;15.18;10.07;;;;;;;;;;5065499;28;20025;-73
2022/06/05 05:18:43;;;;;;;20.48;10.70;;;;;;;;;;5070728;28;20093;-73
2022/06/05 05:21:10;;;;;;;16.48;9.98;;;;;;;;;;5075054;28;20467;-73
2022/06/05 05:23:37;;;;;;;16.42;9.13;;;;;;;;;;5060461;28;20025;-73
2022/06/05 05:26:32;;;;;;;21.33;10.15;;;;;;;;;;5061072;28;20028;-73
2022/06/05 05:28:59;;;;;;;21.33;10.90;;;;;;;;;;5054942;28;20061;-73
2022/06/05 05:31:27;;;;;;;14.80;9.15;;;;;;;;;;5066780;28;20027;-73
2022/06/05 05:33:53;;;;;;;16.38;9.57;;;;;;;;;;5072596;28;20089;-73
2022/06/05 05:36:21;;;;;;;11.50;8.77;;;;;;;;;;5068186;28;20519;-73
2022/06/05 05:44:18;;;;;;;16.63;9.15;;;;;;;;;;5078106;28;20040;-73
2022/06/05 05:46:44;;;;;;;16.80;9.85;;;;;;;;;;5071112;28;20052;-73
2022/06/05 05:49:11;;;;;;;18.73;9.82;;;;;;;;;;5072248;28;20075;-73
2022/06/05 05:51:38;;;;;;;17.52;9.35;;;;;;;;;;5067378;28;20037;-73
2022/06/05 05:54:04;;;;;;;16.08;9.15;;;;;;;;;;5075096;28;20099;-73
2022/06/05 05:56:30;;;;;;;14.48;9.52;;;;;;;;;;5073159;28;20450;-74
2022/06/05 05:58:56;;;;;;;16.73;9.48;;;;;;;;;;5079936;28;20029;-73
2022/06/05 06:01:22;;;;;;;15.90;9.00;;;;;;;;;;5066798;28;20036;-73
2022/06/05 06:03:48;;;;;;;16.33;8.60;;;;;;;;;;5077358;28;20388;-73
2022/06/05 06:06:14;;;;;;;31.35;20.27;;;;;;;;;;5065299;28;20021;-73
2022/06/05 06:08:40;;;;;;;18.67;12.10;;;;;;;;;;5066245;28;20042;-74
2022/06/05 06:11:07;;;;;;;15.70;9.45;;;;;;;;;;5072010;28;20076;-72
2022/06/05 06:13:33;;;;;;;13.75;9.02;;;;;;;;;;5067023;28;20036;-73
2022/06/05 06:15:59;;;;;;;12.38;8.20;;;;;;;;;;5050619;28;20032;-73
2022/06/05 06:18:25;;;;;;;12.35;8.75;;;;;;;;;;5071954;28;20399;-74
2022/06/05 06:20:51;;;;;;;12.25;8.82;;;;;;;;;;5075692;28;20648;-73
2022/06/05 06:23:17;;;;;;;12.45;7.93;;;;;;;;;;5066356;28;20437;-74
2022/06/05 06:25:44;;;;;;;14.23;8.73;;;;;;;;;;5064050;28;20036;-75
2022/06/05 06:28:10;;;;;;;14.05;8.07;;;;;;;;;;5063738;28;20033;-75
2022/06/05 06:30:37;;;;;;;13.77;9.07;;;;;;;;;;5081741;28;20048;-74
2022/06/05 06:33:03;;;;;;;15.18;7.88;;;;;;;;;;5086161;28;20028;-74
2022/06/05 06:35:29;;;;;;;17.45;8.77;;;;;;;;;;5074534;28;20082;-72
2022/06/05 06:37:56;;;;;;;16.42;10.55;;;;;;;;;;5088403;28;20472;-72
2022/06/05 06:40:22;;;;;;;19.50;11.95;;;;;;;;;;5069923;28;20114;-72
2022/06/05 06:42:48;;;;;;;13.35;7.95;;;;;;;;;;5070371;28;20155;-74
2022/06/05 06:45:14;;;;;;;13.43;8.30;;;;;;;;;;5080421;28;20481;-75
2022/06/05 06:47:40;;;;;;;13.90;8.30;;;;;;;;;;5072400;28;20036;-74
2022/06/05 06:50:07;;;;;;;10.27;7.43;;;;;;;;;;5073108;28;20028;-75
2022/06/05 06:52:33;;;;;;;11.40;8.07;;;;;;;;;;5084033;28;20032;-75
2022/06/05 06:54:59;;;;;;;13.13;8.75;;;;;;;;;;5086012;28;20169;-75
2022/06/05 06:57:27;;;;;;;12.43;7.93;;;;;;;;;;5070579;28;20517;-74
2022/06/05 06:59:53;;;;;;;12.63;8.13;;;;;;;;;;5051741;28;20097;-75
2022/06/05 07:02:19;;;;;;;13.60;8.40;;;;;;;;;;5068886;28;20039;-74
2022/06/05 07:04:45;;;;;;;9.65;7.70;;;;;;;;;;5064497;28;20032;-74
2022/06/05 07:07:11;;;;;;;10.35;8.10;;;;;;;;;;5076126;28;20385;-77
2022/06/05 07:09:37;;;;;;;13.52;7.40;;;;;;;;;;5047366;28;20040;-79
2022/06/05 07:12:03;;;;;;;9.45;6.93;;;;;;;;;;5072676;28;20056;-79
2022/06/05 07:14:30;;;;;;;13.38;8.02;;;;;;;;;;5084662;28;20115;-78
2022/06/05 07:16:56;;;;;;;10.05;7.20;;;;;;;;;;5068217;28;20420;-78
2022/06/05 07:19:22;;;;;;;12.07;7.15;;;;;;;;;;5059718;28;20063;-78
2022/06/05 07:21:48;;;;;;;9.35;7.03;;;;;;;;;;5066106;28;20061;-78
2022/06/05 07:24:16;;;;;;;9.60;6.07;;;;;;;;;;5069489;28;20114;-78
2022/06/05 07:26:42;;;;;;;9.95;7.65;;;;;;;;;;5074675;28;20028;-76
2022/06/05 07:29:08;;;;;;;13.70;8.32;;;;;;;;;;5090615;28;20063;-76
2022/06/05 07:31:34;;;;;;;9.50;6.20;;;;;;;;;;5071795;28;20468;-77
2022/06/05 07:34:00;;;;;;;10.88;6.70;;;;;;;;;;5073999;28;20083;-79
2022/06/05 07:36:27;;;;;;;11.18;5.93;;;;;;;;;;5082609;28;20020;-77
2022/06/05 07:38:54;;;;;;;9.73;6.32;;;;;;;;;;5077637;28;20047;-77
2022/06/05 07:41:22;;;;;;;10.35;5.93;;;;;;;;;;5069652;28;20036;-78
2022/06/05 07:43:48;;;;;;;7.68;5.82;;;;;;;;;;5080576;28;20115;-78
2022/06/05 07:46:14;;;;;;;8.52;5.93;;;;;;;;;;5077138;28;20028;-79
2022/06/05 07:48:41;;;;;;;10.55;8.27;;;;;;;;;;5076360;28;20055;-76
2022/06/05 07:56:39;;;;;;;10.63;5.28;;;;;;;;;;5069389;28;20086;-76
2022/06/05 07:59:05;;;;;;;7.90;5.93;;;;;;;;;;5081925;28;20036;-77
2022/06/05 08:01:31;;;;;;;8.38;4.82;;;;;;;;;;5047200;28;20399;-76
2022/06/05 08:03:57;;;;;;;9.43;5.72;;;;;;;;;;5076750;28;20462;-77
2022/06/05 08:06:23;;;;;;;7.38;4.85;;;;;;;;;;5076293;28;20032;-77
2022/06/05 08:08:49;;;;;;;9.48;5.65;;;;;;;;;;5044841;28;20032;-78
2022/06/05 08:11:15;;;;;;;6.00;5.38;;;;;;;;;;5075883;28;20056;-77
2022/06/05 08:13:41;;;;;;;13.55;8.45;;;;;;;;;;5059279;28;20507;-75
2022/06/05 08:16:08;;;;;;;10.30;6.53;;;;;;;;;;5059478;28;20099;-76
2022/06/05 08:18:34;;;;;;;7.07;6.03;;;;;;;;;;5049834;28;20054;-76
2022/06/05 08:21:00;;;;;;;9.70;5.05;;;22.10;99.90;;;;;;5059890;28;20469;-75
2022/06/05 08:23:26;;;;;;;9.38;5.05;;;;;;;;;;5056311;28;20112;-73
2022/06/05 08:25:52;;;;;;;7.43;4.47;;;;;;;;;;5069921;28;20090;-75
2022/06/05 08:28:18;;;;;;;5.72;4.68;;;;;;;;;;5060449;28;20032;-75
2022/06/05 08:30:44;;;;;;;10.88;5.13;;;;;;;;;;5062230;28;20412;-75
2022/06/05 08:33:11;;;;;;;7.22;5.07;;;;;;;;;;5073586;28;20036;-74
2022/06/05 08:35:37;;;;;;;12.35;4.78;;;;;;;;;;5071250;28;20419;-74
2022/06/05 08:43:41;;;;;;;6.78;4.65;;;;;;;;;;5063025;28;20039;-74
2022/06/05 08:46:10;;;;;;;6.07;4.90;;;;;;;;;;5074632;28;20033;-74
2022/06/05 08:48:52;;;;;;;9.18;4.07;;;;;;;;;;5071124;28;20077;-74
2022/06/05 08:51:22;;;;;;;6.45;4.47;;;;;;;;;;5053060;28;20035;-74
2022/06/05 08:54:05;;;;;;;9.45;5.15;;;22.50;99.90;;;;;;5075181;28;20096;-74
2022/06/05 08:56:36;;;;;;;8.30;4.70;;;;;;;;;;5071834;28;20017;-74
2022/06/05 08:59:14;;;;;;;9.15;4.93;;;22.50;99.90;;;;;;5068982;28;20985;-74
2022/06/05 09:01:40;;;;;;;6.45;4.63;;;;;;;;;;5042058;28;20067;-74
2022/06/05 09:04:12;;;;;;;6.60;4.60;;;;;;;;;;5078440;28;20032;-73
2022/06/05 09:06:44;;;;;;;;;;;22.60;99.90;;;;;;5067870;28;20078;-73
2022/06/05 09:09:18;;;;;;;6.20;4.78;;;;;;;;;;5055750;28;19920;-73
2022/06/05 09:11:47;;;;;;;4.68;4.07;;;;;;;;;;5076748;28;20071;-73
2022/06/05 09:14:32;;;;;;;9.02;5.32;;;;;;;;;;5080517;28;20419;-73
2022/06/05 09:17:02;;;;;;;7.10;5.07;;;;;;;;;;5077216;28;20053;-73
2022/06/05 09:19:30;;;;;;;21.20;15.05;;;;;;;;;;5076781;28;20040;-72
2022/06/05 09:22:04;;;;;;;7.43;5.75;;;;;;;;;;5066175;28;20519;-72
2022/06/05 09:24:39;;;;;;;6.65;4.50;;;;;;;;;;5067250;28;20082;-74
2022/06/05 09:27:13;;;;;;;8.95;4.50;;;;;;;;;;5070972;28;20426;-74
2022/06/05 09:29:58;;;;;;;6.85;5.00;;;;;;;;;;5064680;28;20412;-75
2022/06/05 09:32:39;;;;;;;8.88;4.72;;;;;;;;;;5052181;28;20037;-75
2022/06/05 09:35:05;;;;;;;6.82;5.00;;;;;;;;;;5070210;28;20024;-75
2022/06/05 09:37:56;;;;;;;14.23;8.75;;;;;;;;;;5061540;28;20162;-73
2022/06/05 09:40:28;;;;;;;7.88;5.30;;;;;;;;;;5025210;28;20041;-73
2022/06/05 09:42:57;;;;;;;6.97;5.13;;;;;;;;;;5066173;28;20040;-75
2022/06/05 09:45:30;;;;;;;6.72;4.40;;;;;;;;;;5071526;28;20028;-75
2022/06/05 09:48:14;;;;;;;5.05;4.50;;;24.00;99.90;;;;;;5058716;28;20028;-75
2022/06/05 09:50:41;;;;;;;5.38;4.53;;;;;;;;;;5076596;28;20028;-75
2022/06/05 09:53:15;;;;;;;5.28;4.20;;;23.70;99.90;;;;;;5062383;28;20025;-75
2022/06/05 09:55:55;;;;;;;6.20;4.70;;;;;;;;;;5077600;28;20071;-75
2022/06/05 09:58:24;;;;;;;8.98;5.50;;;;;;;;;;5075796;28;20036;-75
2022/06/05 10:00:55;;;;;;;6.20;4.85;;;23.60;99.90;;;;;;5074639;28;20037;-75
2022/06/05 10:03:29;;;;;;;6.82;4.55;;;;;;;;;;5069521;28;20069;-75
2022/06/05 10:06:32;;;;;;;6.97;4.43;;;23.50;99.70;;;;;;5077921;28;20634;-75
2022/06/05 10:09:19;;;;;;;6.10;4.65;;;;;;;;;;5073678;28;20037;-75
2022/06/05 10:11:48;;;;;;;7.90;4.05;;;;;;;;;;5076328;28;20056;-75
2022/06/05 10:14:17;;;;;;;5.93;4.45;;;;;;;;;;5073047;28;20063;-74
2022/06/05 10:16:43;;;;;;;5.00;4.50;;;;;;;;;;5071605;28;20028;-74
2022/06/05 10:19:13;;;;;;;5.55;4.50;;;;;;;;;;5053244;28;20116;-73
2022/06/05 10:22:03;;;;;;;5.45;4.15;;;;;;;;;;5067326;28;20082;-74
2022/06/05 10:24:29;;;;;;;5.75;3.97;;;;;;;;;;5067891;28;20101;-72
2022/06/05 10:26:57;;;;;;;4.82;3.45;;;;;;;;;;5068087;28;20021;-76
2022/06/05 10:29:26;;;;;;;11.23;7.50;;;;;;;;;;5055593;28;20036;-76
2022/06/05 10:31:52;;;;;;;8.32;6.57;;;;;;;;;;5064645;28;20111;-79
2022/06/05 10:34:28;;;;;;;7.13;3.97;;;;;;;;;;5077190;28;20028;-74
2022/06/05 10:37:03;;;;;;;9.13;3.85;;;;;;;;;;5065811;28;20033;-74
2022/06/05 10:39:56;;;;;;;5.78;3.95;;;23.70;99.90;;;;;;5073298;28;20036;-74
2022/06/05 10:42:21;;;;;;;;;;;24.00;99.90;;;;;;5057417;28;20480;-73
2022/06/05 10:45:09;;;;;;;6.22;3.50;;;24.10;99.70;;;;;;5071779;28;19916;-74
2022/06/05 10:47:52;;;;;;;7.15;4.57;;;;;;;;;;5063985;28;20033;-75
2022/06/05 10:50:23;;;;;;;4.90;3.78;;;24.10;99.90;;;;;;5065094;28;20068;-75
2022/06/05 10:53:07;;;;;;;4.80;3.55;;;;;;;;;;5062268;28;20027;-75
2022/06/05 10:55:43;;;;;;;5.93;4.15;;;;;;;;;;5065644;28;20112;-75
2022/06/05 10:58:09;;;;;;;6.22;4.28;;;;;;;;;;5068464;28;20029;-74
2022/06/05 11:00:51;;;;;;;6.53;4.22;;;24.00;99.90;;;;;;5070536;28;20047;-74
2022/06/05 11:03:36;;;;;;;3.85;3.47;;;;;;;;;;5065210;28;20033;-74
2022/06/05 11:06:09;;;;;;;4.63;4.13;;;;;;;;;;5072234;28;20441;-75
2022/06/05 11:08:35;;;;;;;5.25;4.60;;;;;;;;;;5062701;28;20480;-74
2022/06/05 11:14:13;;;;;;;6.22;4.38;;;24.00;99.90;;;;;;5072811;28;20062;-76
2022/06/05 11:16:58;;;;;;;7.53;5.88;;;;;;;;;;5066326;28;20528;-73
2022/06/05 11:19:43;;;;;;;5.18;4.50;;;;;;;;;;5072299;28;20040;-76
2022/06/05 11:22:12;;;;;;;7.40;4.03;;;;;;;;;;5073756;28;20039;-74
2022/06/05 11:24:45;;;;;;;5.43;3.97;;;;;;;;;;5064901;28;20503;-74
2022/06/05 11:27:18;;;;;;;6.93;4.88;;;;;;;;;;5075591;28;20111;-74
2022/06/05 11:29:52;;;;;;;4.85;3.63;;;;;;;;;;5072466;28;20037;-74
2022/06/05 11:32:37;;;;;;;4.32;3.55;;;;;;;;;;5059484;28;20040;-74
2022/06/05 11:35:18;;;;;;;4.78;3.55;;;;;;;;;;5072416;28;20468;-74
2022/06/05 11:37:53;;;;;;;3.92;3.38;;;;;;;;;;5070806;28;20034;-74
2022/06/05 11:40:38;;;;;;;5.63;4.15;;;;;;;;;;5055900;28;20033;-74
2022/06/05 11:43:10;;;;;;;4.95;3.45;;;;;;;;;;5069600;28;20063;-74
2022/06/05 11:45:36;;;;;;;;;;;;;;;;;;5067573;28;20099;-74
2022/06/05 11:48:07;;;;;;;7.30;4.22;;;;;;;;;;5070202;28;20004;-74
2022/06/05 11:50:41;;;;;;;4.53;3.50;;;;;;;;;;5070220;28;20456;-74
2022/06/05 11:53:26;;;;;;;6.53;3.55;;;;;;;;;;5068596;28;20032;-74
2022/06/05 11:55:56;;;;;;;11.02;3.97;;;;;;;;;;5052479;28;20432;-74
2022/06/05 11:58:25;;;;;;;5.93;3.63;;;;;;;;;;5067047;28;20036;-74
2022/06/05 12:00:59;;;;;;;8.25;3.78;;;;;;;;;;5070897;28;20044;-73
2022/06/05 12:03:33;;;;;;;9.27;3.80;;;23.80;99.90;;;;;;5068808;28;20473;-72
2022/06/05 12:06:38;;;;;;;5.20;3.42;;;;;;;;;;5065148;28;20067;-75
2022/06/05 12:09:10;;;;;;;5.13;3.42;;;;;;;;;;4990714;28;20057;-73
2022/06/05 12:11:40;;;;;;;4.43;2.90;;;;;;;;;;4989454;28;20514;-73
2022/06/05 12:14:33;;;;;;;5.38;3.75;;;24.40;99.90;;;;;;5031344;28;20064;-74
2022/06/05 12:17:44;;;;;;;6.10;3.35;;;24.40;99.90;;;;;;5062165;28;20499;-74
2022/06/05 12:20:36;;;;;;;4.40;3.97;;;24.60;99.90;;;;;;5024666;28;20036;-74
2022/06/05 12:23:11;;;;;;;4.28;3.38;;;;;;;;;;5069001;28;20032;-74
2022/06/05 12:25:55;;;;;;;5.65;3.58;;;24.30;99.90;;;;;;5078616;28;20055;-74
2022/06/05 12:28:21;;;;;;;5.18;3.60;;;;;;;;;;5069763;28;20063;-74
2022/06/05 12:30:52;;;;;;;3.72;3.25;;;;;;;;;;5069739;28;20056;-74
2022/06/05 12:33:18;;;;;;;4.28;3.30;;;;;;;;;;5071451;28;20028;-74
2022/06/05 12:35:49;;;;;;;5.65;3.75;;;24.20;99.90;;;;;;5062894;28;20484;-74
2022/06/05 12:38:30;;;;;;;3.92;3.53;;;24.10;99.90;;;;;;5058179;28;20041;-74
2022/06/05 12:41:20;;;;;;;8.00;3.90;;;24.40;99.90;;;;;;5052340;28;20096;-74
2022/06/05 12:43:49;;;;;;;9.15;3.75;;;;;;;;;;5054020;28;20491;-74
2022/06/05 12:46:31;;;;;;;3.33;3.03;;;;;;;;;;5064550;28;20033;-74
2022/06/05 12:49:18;;;;;;;8.73;3.40;;;;;;;;;;5077582;28;20123;-78
2022/06/05 12:51:48;;;;;;;6.35;2.80;;;;;;;;;;5056440;28;20510;-78
2022/06/05 12:54:23;;;;;;;3.28;3.00;;;;;;;;;;5078601;28;20037;-83
2022/06/05 12:56:51;;;;;;;6.13;3.28;;;;;;;;;;5039142;28;20028;-79
2022/06/05 12:59:19;;;;;;;8.02;3.35;;;;;;;;;;5060761;28;20032;-71
2022/06/05 13:01:54;;;;;;;3.88;3.10;;;24.70;99.90;;;;;;5072263;28;20069;-72
2022/06/05 13:04:38;;;;;;;4.85;3.33;;;;;;;;;;5085088;28;20033;-72
2022/06/05 13:07:27;;;;;;;5.35;3.25;;;;;;;;;;5065272;28;20492;-72
2022/06/05 13:10:00;;;;;;;5.30;3.03;;;;;;;;;;5057371;28;20045;-72
2022/06/05 13:12:39;;;;;;;6.03;2.92;;;;;;;;;;5051621;28;20040;-72
2022/06/05 13:15:17;;;;;;;7.10;2.90;;;;;;;;;;5074016;28;20035;-72
2022/06/05 13:18:06;;;;;;;5.25;3.20;;;;;;;;;;5062707;28;20020;-72
2022/06/05 13:20:51;;;;;;;9.13;2.90;;;;;;;;;;5006741;28;20039;-72
2022/06/05 13:23:33;;;;;;;9.38;3.65;;;;;;;;;;5073296;28;20225;-72
2022/06/05 13:26:18;;;;;;;4.45;3.28;;;;;;;;;;5078238;28;20040;-72
2022/06/05 13:29:02;;;;;;;3.85;2.88;;;;;;;;;;5078321;28;20069;-72
2022/06/05 13:31:42;;;;;;;3.60;2.70;;;;;;;;;;5068472;28;20460;-72
2022/06/05 13:34:23;;;;;;;5.78;3.10;;;;;;;;;;5061077;28;20029;-80
2022/06/05 13:36:55;;;;;;;6.05;4.85;;;;;;;;;;5060667;28;20660;-80
2022/06/05 13:39:29;;;;;;;6.38;4.18;;;;;;;;;;5060540;28;20482;-82
2022/06/05 13:42:10;;;;;;;5.93;2.83;;;;;;;;;;5087826;28;20028;-77
2022/06/05 13:44:36;;;;;;;4.05;3.10;;;;;;;;;;5070991;28;20029;-77
2022/06/05 13:47:02;;;;;;;4.25;2.60;;;;;;;;;;5069202;28;20025;-78
2022/06/05 13:49:34;;;;;;;6.18;2.50;;;;;;;;;;5070942;28;20054;-79
2022/06/05 13:52:21;;;;;;;3.33;2.75;;;;;;;;;;5084576;28;20494;-77
2022/06/05 13:54:59;;;;;;;4.38;3.20;;;;;;;;;;5069779;28;20045;-82
2022/06/05 13:57:28;;;;;;;5.22;2.97;;;;;;;;;;5084487;28;20031;-82
2022/06/05 13:59:57;;;;;;;5.15;2.88;;;;;;;;;;5090876;28;20512;-82
2022/06/05 14:02:36;;;;;;;3.33;2.97;;;24.70;97.80;;;;;;5083842;28;20040;-82
2022/06/05 14:05:20;;;;;;;3.85;2.55;;;25.00;98.50;;;;;;5072492;28;20039;-81
2022/06/05 14:07:52;;;;;;;7.20;3.47;;;;;;;;;;5088409;28;20021;-82
2022/06/05 14:10:18;;;;;;;4.50;3.30;;;;;;;;;;5096133;28;20263;-81
2022/06/05 14:12:46;;;;;;;6.32;2.70;;;;;;;;;;5086860;28;20040;-81
2022/06/05 14:15:14;;;;;;;7.18;4.57;;;;;;;;;;5072962;28;20052;-78
2022/06/05 14:17:45;;;;;;;90.78;62.38;;;25.10;97.70;;;;;;5058735;28;20104;-79
2022/06/05 14:20:16;;;;;;;6.60;4.32;;;;;;;;;;5062130;28;20030;-73
2022/06/05 14:22:45;;;;;;;4.65;2.85;;;;;;;;;;5057883;28;20025;-75
2022/06/05 14:25:34;;;;;;;5.43;3.33;;;;;;;;;;5064241;28;20024;-75
2022/06/05 14:28:10;;;;;;;6.95;2.67;;;24.60;95.70;;;;;;5056921;28;20045;-76
2022/06/05 14:30:41;;;;;;;3.85;2.75;;;;;;;;;;5063984;28;20102;-75
2022/06/05 14:33:15;;;;;;;3.67;2.70;;;;;;;;;;5060523;28;20029;-76
2022/06/05 14:35:48;;;;;;;6.07;2.70;;;24.70;97.50;;;;;;5054409;28;20045;-75
2022/06/05 14:38:23;;;;;;;4.22;2.67;;;24.60;95.80;;;;;;5061113;28;20024;-75
2022/06/05 14:40:55;;;;;;;6.95;2.60;;;;;;;;;;5057082;28;20379;-75
2022/06/05 14:43:28;;;;;;;5.57;3.13;;;24.60;97.90;;;;;;5067016;28;20025;-74
2022/06/05 14:46:12;;;;;;;4.53;2.85;;;24.50;97.90;;;;;;5064741;28;20115;-75
2022/06/05 14:48:42;;;;;;;4.22;3.83;;;24.20;98.00;;;;;;5062106;28;20060;-75
2022/06/05 14:51:16;;;;;;;17.63;13.25;;;;;;;;;;5074080;28;20024;-77
2022/06/05 14:54:16;;;;;;;11.55;7.55;;;24.40;98.50;;;;;;5067935;28;20048;-72
2022/06/05 14:59:55;;;;;;;6.07;2.60;;;24.30;98.50;;;;;;5061221;28;20044;-75
2022/06/05 15:02:24;;;;;;;5.50;2.85;;;;;;;;;;5064418;28;20195;-76
2022/06/05 15:05:10;;;;;;;5.57;2.75;;;;;;;;;;5066072;28;20033;-77
2022/06/05 15:07:41;;;;;;;4.63;2.70;;;;;;;;;;5034253;28;20116;-75
2022/06/05 15:10:13;;;;;;;4.50;2.70;;;;;;;;;;5064880;28;20039;-73
2022/06/05 15:12:42;;;;;;;;;;;24.70;98.40;;;;;;5065119;28;20040;-74